createdAt,value
2022-07-25T00:00:37.791Z,2.95
2022-07-25T00:03:02.761Z,2.63
2022-07-25T00:05:28.572Z,2.60
2022-07-25T00:07:54.075Z,3.05
2022-07-25T00:10:19.067Z,2.60
2022-07-25T00:12:43.467Z,2.88
2022-07-25T00:15:08.397Z,2.60
2022-07-25T00:17:32.403Z,2.67
2022-07-25T00:19:56.462Z,2.90
2022-07-25T00:22:22.115Z,2.63
2022-07-25T00:24:46.139Z,2.97
2022-07-25T00:27:10.185Z,2.65
2022-07-25T00:29:34.186Z,2.30
2022-07-25T00:31:58.172Z,2.70
2022-07-25T00:34:22.343Z,2.50
2022-07-25T00:36:46.562Z,2.85
2022-07-25T00:39:11.888Z,2.63
2022-07-25T00:41:36.665Z,2.72
2022-07-25T00:44:00.703Z,2.45
2022-07-25T00:46:25.072Z,2.40
2022-07-25T00:48:51.433Z,2.45
2022-07-25T00:51:17.342Z,2.53
2022-07-25T00:53:41.571Z,2.75
2022-07-25T00:56:08.105Z,2.35
2022-07-25T00:58:32.166Z,3.00
2022-07-25T01:00:56.916Z,2.95
2022-07-25T01:03:21.022Z,2.80
2022-07-25T01:05:47.098Z,2.60
2022-07-25T01:08:13.773Z,2.75
2022-07-25T01:10:38.930Z,3.22
2022-07-25T01:13:04.601Z,2.88
2022-07-25T01:15:28.670Z,3.08
2022-07-25T01:17:53.132Z,3.13
2022-07-25T01:20:19.224Z,4.30
2022-07-25T01:22:43.138Z,5.00
2022-07-25T01:25:07.569Z,4.75
2022-07-25T01:27:33.017Z,4.88
2022-07-25T01:29:57.665Z,5.22
2022-07-25T01:32:21.677Z,4.40
2022-07-25T01:34:46.152Z,4.57
2022-07-25T01:37:11.544Z,3.85
2022-07-25T01:39:35.673Z,4.20
2022-07-25T01:41:59.736Z,3.92
2022-07-25T01:44:23.778Z,4.25
2022-07-25T01:46:47.803Z,3.50
2022-07-25T01:49:12.008Z,3.17
2022-07-25T01:51:36.013Z,3.15
2022-07-25T01:54:01.546Z,3.08
2022-07-25T01:56:27.392Z,3.45
2022-07-25T01:58:54.434Z,2.83
2022-07-25T02:01:19.523Z,3.15
2022-07-25T02:03:45.824Z,3.08
2022-07-25T02:06:09.965Z,3.45
2022-07-25T02:08:34.123Z,3.08
2022-07-25T02:11:00.249Z,3.05
2022-07-25T02:13:25.940Z,3.70
2022-07-25T02:15:50.610Z,3.03
2022-07-25T02:18:14.756Z,3.70
2022-07-25T02:20:38.976Z,3.00
2022-07-25T02:23:04.138Z,3.58
2022-07-25T02:25:29.444Z,3.15
2022-07-25T02:27:55.423Z,4.20
2022-07-25T02:30:19.775Z,3.78
2022-07-25T02:32:44.188Z,3.75
2022-07-25T02:35:12.903Z,3.80
2022-07-25T02:37:37.954Z,3.67
2022-07-25T02:40:02.120Z,3.88
2022-07-25T02:42:27.825Z,3.88
2022-07-25T02:44:53.736Z,3.90
2022-07-25T02:47:17.909Z,4.18
2022-07-25T02:49:42.201Z,4.05
2022-07-25T02:52:06.796Z,4.00
2022-07-25T02:54:31.028Z,4.07
2022-07-25T02:56:55.207Z,4.32
2022-07-25T02:59:19.599Z,4.53
2022-07-25T03:01:45.320Z,4.82
2022-07-25T03:04:09.978Z,4.72
2022-07-25T03:06:34.934Z,5.40
2022-07-25T03:08:59.349Z,4.70
2022-07-25T03:11:23.557Z,4.68
2022-07-25T03:13:47.877Z,4.93
2022-07-25T03:16:13.137Z,5.10
2022-07-25T03:18:38.915Z,4.63
2022-07-25T03:21:03.787Z,4.55
2022-07-25T03:23:28.575Z,4.53
2022-07-25T03:25:52.901Z,5.38
2022-07-25T03:28:17.291Z,5.22
2022-07-25T03:30:41.597Z,4.88
2022-07-25T03:33:05.707Z,4.45
2022-07-25T03:35:31.557Z,4.40
2022-07-25T03:37:56.125Z,4.72
2022-07-25T03:40:20.786Z,5.03
2022-07-25T03:43:05.015Z,4.80
2022-07-25T03:45:49.154Z,5.25
2022-07-25T03:48:33.402Z,4.20
2022-07-25T03:51:18.802Z,4.30
2022-07-25T03:54:07.061Z,4.50
2022-07-25T03:56:52.604Z,3.75
2022-07-25T03:59:36.629Z,4.47
2022-07-25T04:02:20.853Z,4.88
2022-07-25T04:05:05.763Z,4.60
2022-07-25T04:07:51.417Z,4.43
2022-07-25T04:10:35.421Z,4.13
2022-07-25T04:13:19.531Z,3.80
2022-07-25T04:16:03.614Z,4.20
2022-07-25T04:18:48.879Z,4.60
2022-07-25T04:21:33.436Z,4.47
2022-07-25T04:24:19.129Z,3.45
2022-07-25T04:27:03.486Z,4.00
2022-07-25T04:29:47.506Z,4.28
2022-07-25T04:32:31.574Z,4.38
2022-07-25T04:35:15.571Z,4.43
2022-07-25T04:37:59.614Z,4.95
2022-07-25T04:40:45.690Z,5.05
2022-07-25T04:43:29.650Z,4.90
2022-07-25T04:46:13.875Z,5.32
2022-07-25T04:48:57.977Z,5.47
2022-07-25T04:51:41.976Z,4.38
2022-07-25T04:54:26.037Z,5.68
2022-07-25T04:57:11.635Z,4.95
2022-07-25T04:59:56.382Z,5.93
2022-07-25T05:02:40.776Z,5.13
2022-07-25T05:05:25.136Z,4.70
2022-07-25T05:08:09.273Z,4.43
2022-07-25T05:10:53.976Z,4.30
2022-07-25T05:13:39.587Z,5.35
2022-07-25T05:16:23.616Z,5.20
2022-07-25T05:19:08.802Z,5.07
2022-07-25T05:21:52.893Z,5.63
2022-07-25T05:24:37.766Z,4.82
2022-07-25T05:27:21.877Z,5.32
2022-07-25T05:30:10.157Z,4.68
2022-07-25T05:32:54.225Z,5.38
2022-07-25T05:35:38.303Z,6.10
2022-07-25T05:38:22.368Z,5.55
2022-07-25T05:41:06.683Z,5.82
2022-07-25T05:43:50.721Z,5.82
2022-07-25T05:46:37.209Z,6.32
2022-07-25T05:49:21.541Z,6.47
2022-07-25T05:52:10.953Z,7.03
2022-07-25T05:54:57.309Z,7.00
2022-07-25T05:57:41.334Z,6.35
2022-07-25T06:00:25.552Z,6.22
2022-07-25T06:03:11.119Z,7.00
2022-07-25T06:05:56.770Z,6.97
2022-07-25T06:08:41.298Z,6.10
2022-07-25T06:11:28.124Z,6.93
2022-07-25T06:14:15.424Z,6.68
2022-07-25T06:16:59.573Z,6.63
2022-07-25T06:19:45.122Z,6.68
2022-07-25T06:22:29.269Z,6.38
2022-07-25T06:25:13.357Z,6.07
2022-07-25T06:27:57.443Z,6.35
2022-07-25T06:30:41.515Z,6.53
2022-07-25T06:33:25.535Z,6.55
2022-07-25T06:36:11.351Z,6.40
2022-07-25T06:38:55.379Z,7.13
2022-07-25T06:41:39.565Z,5.93
2022-07-25T06:44:23.671Z,5.85
2022-07-25T06:47:12.845Z,6.10
2022-07-25T06:49:57.301Z,5.97
2022-07-25T06:52:43.032Z,5.55
2022-07-25T06:55:26.944Z,5.88
2022-07-25T06:58:11.021Z,5.55
2022-07-25T07:00:55.172Z,6.00
2022-07-25T07:03:40.510Z,6.22
2022-07-25T07:06:25.133Z,6.82
2022-07-25T07:09:10.812Z,6.03
2022-07-25T07:11:54.963Z,5.88
2022-07-25T07:14:39.006Z,7.15
2022-07-25T07:17:23.085Z,8.00
2022-07-25T07:20:09.178Z,6.90
2022-07-25T07:22:53.438Z,7.03
2022-07-25T07:25:39.241Z,7.95
2022-07-25T07:28:23.224Z,6.65
2022-07-25T07:31:16.911Z,6.93
2022-07-25T07:34:01.678Z,6.80
2022-07-25T07:36:45.801Z,6.78
2022-07-25T07:39:29.872Z,6.65
2022-07-25T07:42:15.344Z,6.90
2022-07-25T07:44:59.303Z,7.93
2022-07-25T07:47:43.491Z,7.57
2022-07-25T07:50:29.590Z,6.63
2022-07-25T12:42:28.871Z,7.40
2022-07-25T12:45:13.979Z,6.53
2022-07-25T12:47:58.063Z,7.10
2022-07-25T12:50:41.963Z,7.35
2022-07-25T12:53:25.786Z,6.90
2022-07-25T12:56:09.840Z,6.20
2022-07-25T12:58:55.918Z,6.55
2022-07-25T13:01:39.856Z,5.95
2022-07-25T13:04:26.190Z,5.97
2022-07-25T13:07:10.319Z,5.63
2022-07-25T13:09:54.416Z,5.80
2022-07-25T13:12:38.229Z,5.82
2022-07-25T13:15:28.158Z,5.80
2022-07-25T13:18:12.536Z,5.97
2022-07-25T13:20:56.512Z,5.57
2022-07-25T13:23:40.516Z,6.07
2022-07-25T13:26:24.791Z,6.28
2022-07-25T13:29:11.731Z,5.95
2022-07-25T13:31:58.257Z,6.13
2022-07-25T13:34:42.413Z,6.13
2022-07-25T13:37:26.540Z,6.03
2022-07-25T13:40:11.237Z,7.25
2022-07-25T13:42:55.241Z,9.15
2022-07-25T13:45:40.226Z,9.85
2022-07-25T13:48:30.238Z,15.65
2022-07-25T13:51:15.952Z,9.13
2022-07-25T13:54:00.042Z,8.85
2022-07-25T13:56:44.061Z,8.13
2022-07-25T13:59:27.928Z,8.77
2022-07-25T14:02:11.964Z,9.35
2022-07-25T14:05:02.088Z,8.40
2022-07-25T14:07:47.811Z,8.45
2022-07-25T14:10:31.813Z,8.13
2022-07-25T14:13:15.974Z,7.32
2022-07-25T14:16:00.029Z,8.00
2022-07-25T14:18:43.994Z,7.65
2022-07-25T14:21:29.313Z,7.32
2022-07-25T14:24:13.146Z,7.95
2022-07-25T14:26:57.140Z,8.73
2022-07-25T14:29:41.078Z,9.35
2022-07-25T14:32:24.948Z,7.95
2022-07-25T14:35:11.152Z,8.15
2022-07-25T14:37:56.729Z,8.85
2022-07-25T14:40:40.738Z,8.88
2022-07-25T14:43:24.621Z,8.75
2022-07-25T14:46:09.271Z,9.05
2022-07-25T14:48:54.346Z,8.75
2022-07-25T14:51:38.460Z,7.78
2022-07-25T14:54:25.515Z,7.88
2022-07-25T14:57:10.780Z,8.20
2022-07-25T14:59:54.860Z,7.05
2022-07-25T15:02:38.941Z,8.30
2022-07-25T15:05:23.215Z,8.20
2022-07-25T15:08:07.914Z,8.40
2022-07-25T15:10:53.347Z,8.63
2022-07-25T15:13:37.416Z,7.13
2022-07-25T15:16:21.589Z,7.40
2022-07-25T15:19:16.549Z,6.88
2022-07-25T15:22:01.801Z,6.85
2022-07-25T15:25:17.182Z,5.80
2022-07-25T15:27:51.311Z,5.80
2022-07-25T15:30:35.497Z,6.78
2022-07-25T15:33:19.936Z,5.18
2022-07-25T15:36:04.123Z,5.05
2022-07-25T15:38:48.268Z,5.88
2022-07-25T15:41:32.459Z,6.35
2022-07-25T15:44:18.071Z,5.28
2022-07-25T15:47:02.303Z,5.60
2022-07-25T15:49:46.361Z,6.10
2022-07-25T15:52:30.465Z,5.82
2022-07-25T15:55:14.500Z,5.18
2022-07-25T15:57:58.979Z,5.30
2022-07-25T16:00:44.882Z,5.40
2022-07-25T16:03:29.079Z,5.20
2022-07-25T16:06:18.413Z,5.55
2022-07-25T16:09:03.382Z,5.35
2022-07-25T16:11:47.555Z,5.03
2022-07-25T16:14:31.557Z,5.50
2022-07-25T16:17:17.119Z,5.85
2022-07-25T16:20:01.434Z,6.05
2022-07-25T16:22:49.218Z,6.03
2022-07-25T16:25:33.336Z,6.28
2022-07-25T16:28:17.433Z,5.57
2022-07-25T16:31:02.460Z,5.35
2022-07-25T16:33:47.941Z,5.63
2022-07-25T16:36:32.068Z,5.32
2022-07-25T16:39:16.358Z,5.45
2022-07-25T16:42:00.350Z,5.53
2022-07-25T16:44:44.546Z,5.68
2022-07-25T16:47:28.633Z,5.63
2022-07-25T16:50:14.159Z,5.47
2022-07-25T16:52:58.238Z,6.35
2022-07-25T16:55:42.357Z,6.28
2022-07-25T16:58:26.507Z,6.13
2022-07-25T17:01:10.501Z,5.85
2022-07-25T17:03:54.869Z,6.15
2022-07-25T17:06:41.675Z,6.25
2022-07-25T17:09:27.421Z,6.03
2022-07-25T17:12:11.513Z,6.80
2022-07-25T17:14:55.812Z,6.68
2022-07-25T17:17:39.854Z,16.25
2022-07-25T17:20:24.120Z,10.75
2022-07-25T17:23:09.616Z,8.93
2022-07-25T17:25:54.042Z,9.15
2022-07-25T17:28:43.894Z,8.38
2022-07-25T17:31:28.354Z,10.43
2022-07-25T17:34:15.353Z,10.98
2022-07-25T17:37:03.049Z,9.05
2022-07-25T17:39:48.575Z,8.98
2022-07-25T17:42:35.238Z,7.82
2022-07-25T17:45:19.408Z,9.00
2022-07-25T17:48:03.518Z,9.35
2022-07-25T17:50:47.588Z,10.07
2022-07-25T17:53:32.186Z,10.10
2022-07-25T17:56:20.428Z,9.32
2022-07-25T17:59:06.349Z,8.00
2022-07-25T18:01:50.417Z,7.80
2022-07-25T18:04:34.495Z,6.28
2022-07-25T18:07:20.484Z,6.85
2022-07-25T18:10:04.847Z,6.80
2022-07-25T18:12:50.957Z,7.55
2022-07-25T18:15:35.034Z,7.05
2022-07-25T18:18:20.656Z,6.53
2022-07-25T18:21:05.201Z,6.90
2022-07-25T18:23:49.285Z,9.48
2022-07-25T18:26:34.874Z,8.23
2022-07-25T18:29:20.510Z,9.82
2022-07-25T18:32:04.663Z,6.95
2022-07-25T18:34:48.735Z,7.57
2022-07-25T18:37:33.216Z,6.85
2022-07-25T18:40:17.447Z,6.05
2022-07-25T18:43:03.025Z,6.32
2022-07-25T18:45:52.224Z,5.47
2022-07-25T18:48:36.521Z,5.95
2022-07-25T18:51:22.331Z,6.35
2022-07-25T18:54:06.536Z,5.60
2022-07-25T18:56:52.878Z,5.53
2022-07-25T18:59:37.476Z,6.03
2022-07-25T19:02:22.944Z,6.50
2022-07-25T19:05:10.430Z,7.30
2022-07-25T19:07:54.599Z,6.72
2022-07-25T19:10:38.867Z,9.15
2022-07-25T19:13:47.712Z,6.65
2022-07-25T19:16:28.344Z,6.20
2022-07-25T19:19:13.846Z,6.88
2022-07-25T19:21:58.059Z,6.80
2022-07-25T19:24:42.147Z,7.10
2022-07-25T19:27:27.221Z,6.53
2022-07-25T19:30:17.221Z,7.18
2022-07-25T19:33:01.814Z,6.65
2022-07-25T19:35:48.164Z,6.45
2022-07-25T19:38:32.267Z,6.82
2022-07-25T19:41:16.452Z,6.72
2022-07-25T19:44:00.551Z,6.45
2022-07-25T19:46:45.144Z,7.00
2022-07-25T19:49:29.369Z,5.68
2022-07-25T19:52:15.723Z,6.10
2022-07-25T19:55:00.554Z,5.55
2022-07-25T19:57:45.140Z,5.70
2022-07-25T20:00:29.340Z,6.28
2022-07-25T20:03:13.391Z,5.53
2022-07-25T20:05:58.790Z,6.00
2022-07-25T20:08:44.319Z,5.82
2022-07-25T20:11:28.460Z,5.68
2022-07-25T20:14:15.426Z,5.10
2022-07-25T20:16:59.601Z,5.55
2022-07-25T20:19:44.106Z,5.50
2022-07-25T20:22:28.500Z,5.30
2022-07-25T20:25:14.682Z,5.38
2022-07-25T20:27:58.785Z,5.95
2022-07-25T20:30:43.054Z,5.00
2022-07-25T20:33:27.380Z,4.72
2022-07-25T20:36:11.677Z,5.45
2022-07-25T20:38:55.689Z,5.25
2022-07-25T20:41:42.577Z,4.95
2022-07-25T20:44:28.824Z,6.13
2022-07-25T20:47:16.265Z,5.10
2022-07-25T20:50:00.315Z,5.50
2022-07-25T20:52:44.953Z,5.38
2022-07-25T20:55:29.751Z,4.88
2022-07-25T20:58:15.282Z,4.63
2022-07-25T21:00:59.461Z,4.82
2022-07-25T21:03:43.634Z,5.30
2022-07-25T21:06:27.763Z,5.07
2022-07-25T21:09:11.977Z,4.78
2022-07-25T21:11:56.607Z,5.10
2022-07-25T21:14:42.008Z,5.43
2022-07-25T21:17:26.054Z,5.07
2022-07-25T21:20:12.420Z,4.50
2022-07-25T21:22:56.632Z,4.85
2022-07-25T21:25:40.605Z,5.13
2022-07-25T21:28:24.799Z,4.28
2022-07-25T21:31:11.908Z,4.38
2022-07-25T21:33:55.898Z,4.97
2022-07-25T21:36:40.070Z,4.60
2022-07-25T21:39:24.289Z,5.10
2022-07-25T21:42:10.043Z,4.57
2022-07-25T21:44:54.088Z,4.50
2022-07-25T21:47:39.668Z,5.03
2022-07-25T21:50:43.549Z,4.88
2022-07-25T21:53:28.115Z,5.55
2022-07-25T21:56:12.337Z,4.22
2022-07-25T21:58:56.551Z,4.53
2022-07-25T22:01:40.855Z,4.90
2022-07-25T22:04:26.363Z,5.43
2022-07-25T22:07:10.376Z,5.30
2022-07-25T22:09:54.490Z,5.45
2022-07-25T22:12:39.207Z,5.40
2022-07-25T22:15:23.274Z,5.38
2022-07-25T22:18:07.338Z,4.97
2022-07-25T22:20:52.881Z,5.85
2022-07-25T22:23:36.884Z,6.50
2022-07-25T22:26:21.465Z,5.63
2022-07-25T22:29:06.093Z,5.70
2022-07-25T22:31:50.315Z,5.45
2022-07-25T22:34:34.469Z,6.20
2022-07-25T22:37:19.728Z,5.10
2022-07-25T22:40:03.784Z,5.50
2022-07-25T22:42:47.892Z,5.93
2022-07-25T22:45:31.811Z,6.30
2022-07-25T22:48:15.604Z,6.20
2022-07-25T22:50:59.388Z,5.30
2022-07-25T22:53:44.762Z,5.90
2022-07-25T22:56:29.395Z,5.57
2022-07-25T22:59:13.334Z,5.50
2022-07-25T23:01:57.215Z,5.45
2022-07-25T23:04:41.042Z,6.13
2022-07-25T23:07:24.903Z,5.70
2022-07-25T23:10:11.504Z,6.03
2022-07-25T23:12:55.406Z,6.47
2022-07-25T23:15:51.207Z,7.25
2022-07-25T23:18:35.245Z,6.35
2022-07-25T23:21:19.104Z,6.40
2022-07-25T23:24:02.938Z,5.63
2022-07-25T23:26:48.185Z,6.00
2022-07-25T23:29:32.062Z,6.05
2022-07-25T23:32:15.831Z,6.10
2022-07-25T23:34:59.753Z,5.88
2022-07-25T23:37:43.587Z,5.43
2022-07-25T23:40:27.423Z,5.60
2022-07-25T23:43:12.585Z,5.72
2022-07-25T23:45:58.980Z,5.38
2022-07-25T23:48:44.928Z,6.03
2022-07-25T23:51:29.139Z,5.68
2022-07-25T23:54:13.094Z,5.43
2022-07-25T23:56:56.893Z,6.05
2022-07-25T23:59:42.185Z,6.32
